createdAt,value
2024-05-09T00:00:43.652Z,10.70
2024-05-09T00:03:12.021Z,10.70
2024-05-09T00:05:41.299Z,10.70
2024-05-09T00:08:08.815Z,10.60
2024-05-09T00:10:38.301Z,10.70
2024-05-09T00:13:10.876Z,10.60
2024-05-09T00:15:38.403Z,10.50
2024-05-09T00:18:07.383Z,10.50
2024-05-09T00:20:39.076Z,10.40
2024-05-09T00:23:08.842Z,10.30
2024-05-09T00:25:36.465Z,10.30
2024-05-09T00:28:03.824Z,10.20
2024-05-09T00:30:36.143Z,10.10
2024-05-09T00:33:06.507Z,10.10
2024-05-09T00:35:34.882Z,10.10
2024-05-09T00:38:02.269Z,10.00
2024-05-09T00:40:39.094Z,10.00
2024-05-09T00:43:08.804Z,10.00
2024-05-09T00:45:38.521Z,9.90
2024-05-09T00:48:08.647Z,9.90
2024-05-09T00:50:39.899Z,9.80
2024-05-09T00:53:10.251Z,9.80
2024-05-09T00:55:38.859Z,9.70
2024-05-09T00:58:07.721Z,9.70
2024-05-09T01:00:39.358Z,9.70
2024-05-09T01:03:12.724Z,9.60
2024-05-09T01:05:41.739Z,9.60
2024-05-09T01:08:10.576Z,9.50
2024-05-09T01:10:38.252Z,9.50
2024-05-09T01:13:06.464Z,9.50
2024-05-09T01:15:35.162Z,9.40
2024-05-09T01:18:06.883Z,9.40
2024-05-09T01:20:41.781Z,9.30
2024-05-09T01:23:15.725Z,9.30
2024-05-09T01:25:44.179Z,9.30
2024-05-09T01:28:11.523Z,9.30
2024-05-09T01:30:38.905Z,9.30
2024-05-09T01:33:08.796Z,9.40
2024-05-09T01:35:38.815Z,9.30
2024-05-09T01:38:06.513Z,9.30
2024-05-09T01:40:39.230Z,9.20
2024-05-09T01:43:08.568Z,9.20
2024-05-09T01:45:36.711Z,9.20
2024-05-09T01:48:04.553Z,9.20
2024-05-09T01:50:38.362Z,9.10
2024-05-09T01:53:09.118Z,9.10
2024-05-09T01:55:38.908Z,9.00
2024-05-09T01:58:06.384Z,9.10
2024-05-09T02:00:39.241Z,9.10
2024-05-09T02:03:11.255Z,9.00
2024-05-09T02:05:40.838Z,9.00
2024-05-09T02:08:12.187Z,9.10
2024-05-09T02:10:42.144Z,9.10
2024-05-09T02:13:09.426Z,9.00
2024-05-09T02:15:36.577Z,9.00
2024-05-09T02:18:04.163Z,8.90
2024-05-09T02:20:36.198Z,8.90
2024-05-09T02:23:06.190Z,8.90
2024-05-09T02:25:34.448Z,8.80
2024-05-09T02:28:04.850Z,8.80
2024-05-09T02:30:39.404Z,8.80
2024-05-09T02:33:10.534Z,8.80
2024-05-09T02:35:39.812Z,8.80
2024-05-09T02:38:08.505Z,8.70
2024-05-09T02:40:38.289Z,8.70
2024-05-09T02:43:12.539Z,8.70
2024-05-09T02:45:40.587Z,8.60
2024-05-09T02:48:10.879Z,8.60
2024-05-09T02:50:40.581Z,8.60
2024-05-09T02:53:08.754Z,8.60
2024-05-09T02:55:36.429Z,8.60
2024-05-09T02:58:03.566Z,8.60
2024-05-09T03:00:39.029Z,8.60
2024-05-09T03:03:12.489Z,8.60
2024-05-09T03:05:41.866Z,8.60
2024-05-09T03:08:09.532Z,8.60
2024-05-09T03:10:38.659Z,8.60
2024-05-09T03:13:07.280Z,8.50
2024-05-09T03:15:37.119Z,8.50
2024-05-09T03:18:05.540Z,8.50
2024-05-09T03:20:35.424Z,8.50
2024-05-09T03:23:04.226Z,8.50
2024-05-09T03:25:31.586Z,8.50
2024-05-09T03:27:59.252Z,8.50
2024-05-09T03:30:38.191Z,8.50
2024-05-09T03:33:14.075Z,8.50
2024-05-09T03:35:42.443Z,8.40
2024-05-09T03:38:10.035Z,8.40
2024-05-09T03:40:44.243Z,8.40
2024-05-09T03:43:12.436Z,8.40
2024-05-09T03:45:39.446Z,8.30
2024-05-09T03:48:07.719Z,8.30
2024-05-09T03:50:38.061Z,8.30
2024-05-09T03:53:05.773Z,8.30
2024-05-09T03:55:32.914Z,8.30
2024-05-09T03:58:00.045Z,8.30
2024-05-09T04:00:35.478Z,8.30
2024-05-09T04:03:08.544Z,8.30
2024-05-09T04:05:42.426Z,8.30
2024-05-09T04:08:12.868Z,8.30
2024-05-09T04:10:41.287Z,8.30
2024-05-09T04:13:09.270Z,8.30
2024-05-09T04:15:36.256Z,8.30
2024-05-09T04:18:03.663Z,8.30
2024-05-09T04:20:38.009Z,8.40
2024-05-09T04:23:12.101Z,8.40
2024-05-09T04:25:41.881Z,8.40
2024-05-09T04:28:08.977Z,8.40
2024-05-09T04:30:39.351Z,8.40
2024-05-09T04:33:11.846Z,8.50
2024-05-09T04:35:42.280Z,8.50
2024-05-09T04:38:12.782Z,8.50
2024-05-09T04:40:40.205Z,8.60
2024-05-09T04:43:13.922Z,8.60
2024-05-09T04:45:41.147Z,8.70
2024-05-09T04:48:09.037Z,8.80
2024-05-09T04:50:38.893Z,8.90
2024-05-09T04:53:08.774Z,8.90
2024-05-09T04:55:40.703Z,8.90
2024-05-09T04:58:09.056Z,9.00
2024-05-09T05:00:38.758Z,9.00
2024-05-09T05:03:10.162Z,9.10
2024-05-09T05:05:43.548Z,9.10
2024-05-09T05:08:12.347Z,9.10
2024-05-09T05:10:42.446Z,9.20
2024-05-09T05:13:17.863Z,9.20
2024-05-09T05:15:46.178Z,9.30
2024-05-09T05:18:14.816Z,9.40
2024-05-09T05:20:42.193Z,9.50
2024-05-09T05:23:12.207Z,9.60
2024-05-09T05:25:42.692Z,9.70
2024-05-09T05:28:10.067Z,9.70
2024-05-09T05:30:38.249Z,9.80
2024-05-09T05:33:06.679Z,10.00
2024-05-09T05:35:34.899Z,10.10
2024-05-09T05:38:02.526Z,10.20
2024-05-09T05:40:36.317Z,10.30
2024-05-09T05:43:09.381Z,10.40
2024-05-09T05:45:36.838Z,10.50
2024-05-09T05:48:06.138Z,10.60
2024-05-09T05:50:36.785Z,10.70
2024-05-09T05:53:06.504Z,10.80
2024-05-09T05:55:33.800Z,10.80
2024-05-09T05:58:01.544Z,10.90
2024-05-09T06:00:38.150Z,10.90
2024-05-09T06:03:07.785Z,11.00
2024-05-09T06:05:36.551Z,11.10
2024-05-09T06:08:04.125Z,11.10
2024-05-09T06:10:37.970Z,11.20
2024-05-09T06:13:07.624Z,11.30
2024-05-09T06:15:37.366Z,11.40
2024-05-09T06:18:05.888Z,11.40
2024-05-09T06:20:36.531Z,11.50
2024-05-09T06:23:05.781Z,11.50
2024-05-09T06:25:33.397Z,11.70
2024-05-09T06:28:00.834Z,11.80
2024-05-09T06:30:35.251Z,11.90
2024-05-09T06:33:11.836Z,12.00
2024-05-09T06:35:41.232Z,12.10
2024-05-09T06:38:09.579Z,12.10
2024-05-09T06:40:40.528Z,12.20
2024-05-09T06:43:11.506Z,12.30
2024-05-09T06:45:39.884Z,12.40
2024-05-09T06:48:10.555Z,12.50
2024-05-09T06:50:39.367Z,12.60
2024-05-09T06:53:07.493Z,12.70
2024-05-09T06:55:34.803Z,12.80
2024-05-09T06:58:01.927Z,12.90
2024-05-09T07:00:35.952Z,13.00
2024-05-09T07:03:12.462Z,13.10
2024-05-09T07:05:42.025Z,13.20
2024-05-09T07:08:10.084Z,13.40
2024-05-09T07:10:37.594Z,13.50
2024-05-09T07:13:08.313Z,13.60
2024-05-09T07:15:35.393Z,13.70
2024-05-09T07:18:11.340Z,13.80
2024-05-09T07:20:38.858Z,13.80
2024-05-09T07:23:08.167Z,13.90
2024-05-09T07:25:35.699Z,14.00
2024-05-09T07:28:02.695Z,14.10
2024-05-09T07:30:33.526Z,14.20
2024-05-09T07:33:02.774Z,14.30
2024-05-09T07:35:33.360Z,14.40
2024-05-09T07:38:00.553Z,14.40
2024-05-09T07:40:35.138Z,14.40
2024-05-09T07:43:04.189Z,14.60
2024-05-09T07:45:48.002Z,14.70
2024-05-09T07:52:37.184Z,14.70
2024-05-09T07:53:45.392Z,14.80
2024-05-09T07:56:16.475Z,14.90
2024-05-09T07:58:44.112Z,15.00
2024-05-09T08:01:11.245Z,15.20
2024-05-09T08:03:38.559Z,15.40
2024-05-09T08:06:08.501Z,15.50
2024-05-09T08:08:35.545Z,15.60
2024-05-09T08:11:03.157Z,15.70
2024-05-09T08:13:30.305Z,15.90
2024-05-09T08:15:57.585Z,16.00
2024-05-09T08:18:24.930Z,16.10
2024-05-09T08:20:52.258Z,16.30
2024-05-09T08:23:23.653Z,16.40
2024-05-09T08:25:53.123Z,16.40
2024-05-09T08:28:20.432Z,16.50
2024-05-09T08:30:47.668Z,16.60
2024-05-09T08:33:15.464Z,16.80
2024-05-09T08:35:42.781Z,16.90
2024-05-09T08:38:10.117Z,17.10
2024-05-09T08:40:41.230Z,17.20
2024-05-09T08:43:11.870Z,17.40
2024-05-09T08:45:43.557Z,17.40
2024-05-09T08:48:13.335Z,17.50
2024-05-09T08:50:41.414Z,17.60
2024-05-09T08:53:09.216Z,17.70
2024-05-09T08:55:43.007Z,17.90
2024-05-09T08:58:15.427Z,18.10
2024-05-09T09:00:43.785Z,18.20
2024-05-09T09:03:15.077Z,18.40
2024-05-09T09:05:50.333Z,18.70
2024-05-09T09:08:18.076Z,18.80
2024-05-09T09:10:48.368Z,19.10
2024-05-09T09:13:15.848Z,19.40
2024-05-09T09:15:48.135Z,19.70
2024-05-09T09:18:16.219Z,20.00
2024-05-09T09:20:43.882Z,20.30
2024-05-09T09:23:11.002Z,20.50
2024-05-09T09:25:39.704Z,20.70
2024-05-09T09:28:10.177Z,20.80
2024-05-09T09:30:39.336Z,20.60
2024-05-09T09:33:06.855Z,20.90
2024-05-09T09:35:34.457Z,21.50
2024-05-09T09:38:03.274Z,21.50
2024-05-09T09:40:36.214Z,21.90
2024-05-09T09:43:13.789Z,22.30
2024-05-09T09:45:43.422Z,22.50
2024-05-09T09:48:12.205Z,22.80
2024-05-09T09:50:41.657Z,23.30
2024-05-09T09:53:09.929Z,24.50
2024-05-09T09:55:37.843Z,24.60
2024-05-09T09:58:09.525Z,24.70
2024-05-09T10:00:42.277Z,25.00
2024-05-09T10:03:09.619Z,25.30
2024-05-09T10:05:37.539Z,25.70
2024-05-09T10:08:07.434Z,26.00
2024-05-09T10:10:35.746Z,26.50
2024-05-09T10:13:03.820Z,27.40
2024-05-09T10:15:41.974Z,28.20
2024-05-09T10:18:11.834Z,29.10
2024-05-09T10:20:43.209Z,29.90
2024-05-09T10:23:24.811Z,30.00
2024-05-09T10:25:55.962Z,30.50
2024-05-09T10:28:26.213Z,30.60
2024-05-09T10:31:06.700Z,30.60
2024-05-09T10:33:45.003Z,31.30
2024-05-09T10:36:13.024Z,32.10
2024-05-09T10:38:41.115Z,32.80
2024-05-09T10:41:08.822Z,33.80
2024-05-09T10:43:40.138Z,34.40
2024-05-09T10:46:08.137Z,34.80
2024-05-09T10:48:39.757Z,35.50
2024-05-09T10:51:07.744Z,35.50
2024-05-09T10:53:41.372Z,34.80
2024-05-09T10:56:09.120Z,34.20
2024-05-09T10:58:36.470Z,34.10
2024-05-09T11:01:06.753Z,34.40
2024-05-09T11:03:35.490Z,34.90
2024-05-09T11:06:06.399Z,35.30
2024-05-09T11:08:34.985Z,35.20
2024-05-09T11:11:06.936Z,34.70
2024-05-09T11:13:36.492Z,34.20
2024-05-09T11:16:04.883Z,32.90
2024-05-09T11:18:36.482Z,31.70
2024-05-09T11:21:13.021Z,30.50
2024-05-09T11:23:40.871Z,29.50
2024-05-09T11:26:09.092Z,29.40
2024-05-09T11:28:36.187Z,30.00
2024-05-09T11:31:07.582Z,31.50
2024-05-09T11:33:37.120Z,31.80
2024-05-09T11:36:05.601Z,31.40
2024-05-09T11:38:35.545Z,30.90
2024-05-09T11:41:02.844Z,30.30
2024-05-09T11:43:30.023Z,29.70
2024-05-09T11:45:57.838Z,29.20
2024-05-09T11:48:25.844Z,29.20
2024-05-09T11:50:54.112Z,29.40
2024-05-09T11:53:21.163Z,30.20
2024-05-09T11:55:50.885Z,31.30
2024-05-09T11:58:19.218Z,32.20
2024-05-09T12:00:47.208Z,31.90
2024-05-09T12:03:14.824Z,31.50
2024-05-09T12:05:42.096Z,30.70
2024-05-09T12:08:10.028Z,29.60
2024-05-09T12:10:37.716Z,28.60
2024-05-09T12:13:08.080Z,28.10
2024-05-09T12:15:37.873Z,28.30
2024-05-09T12:18:06.182Z,28.60
2024-05-09T12:20:38.147Z,28.80
2024-05-09T12:23:09.105Z,29.40
2024-05-09T12:25:37.538Z,30.40
2024-05-09T12:28:07.804Z,30.60
2024-05-09T12:30:38.777Z,30.20
2024-05-09T12:33:08.865Z,29.70
2024-05-09T12:35:36.494Z,28.80
2024-05-09T12:38:04.290Z,27.90
2024-05-09T12:40:36.427Z,27.30
2024-05-09T12:43:09.612Z,27.00
2024-05-09T12:45:38.030Z,27.00
2024-05-09T12:48:08.329Z,27.80
2024-05-09T12:50:36.337Z,29.00
2024-05-09T12:53:04.647Z,29.70
2024-05-09T12:55:40.434Z,29.70
2024-05-09T12:58:18.226Z,29.20
2024-05-09T13:00:45.962Z,28.10
2024-05-09T13:03:13.551Z,27.30
2024-05-09T13:05:41.525Z,27.00
2024-05-09T13:08:09.280Z,26.80
2024-05-09T13:10:36.888Z,26.40
2024-05-09T13:13:04.594Z,26.10
2024-05-09T13:15:34.894Z,26.80
2024-05-09T13:18:03.687Z,28.20
2024-05-09T13:20:34.407Z,29.80
2024-05-09T13:23:03.971Z,31.10
2024-05-09T13:25:31.613Z,32.20
2024-05-09T13:27:58.834Z,33.00
2024-05-09T13:30:33.800Z,33.20
2024-05-09T13:33:09.096Z,34.00
2024-05-09T13:35:36.518Z,34.20
2024-05-09T13:38:04.834Z,34.60
2024-05-09T13:40:35.055Z,34.40
2024-05-09T13:43:04.073Z,32.90
2024-05-09T13:45:31.541Z,31.70
2024-05-09T13:47:59.064Z,30.40
2024-05-09T13:50:34.656Z,29.20
2024-05-09T13:53:05.447Z,28.40
2024-05-09T13:55:33.519Z,29.10
2024-05-09T13:58:01.619Z,30.50
2024-05-09T14:00:41.802Z,31.40
2024-05-09T14:03:14.464Z,31.60
2024-05-09T14:05:44.715Z,32.00
2024-05-09T14:08:13.625Z,32.70
2024-05-09T14:10:44.403Z,33.30
2024-05-09T14:13:13.024Z,33.60
2024-05-09T14:15:40.746Z,33.20
2024-05-09T14:18:12.288Z,32.30
2024-05-09T14:20:43.631Z,32.00
2024-05-09T14:23:11.145Z,31.80
2024-05-09T14:25:42.338Z,31.20
2024-05-09T14:28:10.820Z,30.40
2024-05-09T14:30:39.015Z,29.60
2024-05-09T14:33:08.222Z,28.40
2024-05-09T14:35:37.446Z,28.00
2024-05-09T14:38:09.007Z,28.30
2024-05-09T14:40:41.915Z,28.10
2024-05-09T14:43:11.826Z,28.00
2024-05-09T14:45:39.292Z,28.40
2024-05-09T14:48:07.728Z,28.80
2024-05-09T14:50:38.418Z,29.50
2024-05-09T14:53:11.107Z,30.00
2024-05-09T14:55:40.449Z,30.70
2024-05-09T14:58:09.848Z,31.20
2024-05-09T15:00:41.276Z,31.40
2024-05-09T15:03:11.680Z,31.20
2024-05-09T15:05:38.952Z,31.50
2024-05-09T15:08:09.072Z,31.80
2024-05-09T15:10:37.850Z,31.40
2024-05-09T15:13:07.951Z,29.70
2024-05-09T15:15:37.198Z,28.00
2024-05-09T15:18:04.931Z,26.20
2024-05-09T15:20:36.001Z,25.20
2024-05-09T15:23:06.775Z,24.40
2024-05-09T15:25:37.259Z,24.00
2024-05-09T15:28:07.391Z,23.70
2024-05-09T15:30:35.220Z,23.40
2024-05-09T15:33:07.132Z,23.70
2024-05-09T15:35:34.920Z,24.10
2024-05-09T15:38:05.461Z,24.60
2024-05-09T15:40:39.122Z,25.10
2024-05-09T15:43:11.595Z,25.40
2024-05-09T15:45:39.849Z,25.60
2024-05-09T15:48:08.911Z,25.70
2024-05-09T15:50:39.966Z,25.80
2024-05-09T15:53:10.184Z,25.50
2024-05-09T15:55:37.780Z,25.00
2024-05-09T15:58:06.178Z,24.80
2024-05-09T16:00:40.320Z,24.20
2024-05-09T16:03:10.672Z,23.70
2024-05-09T16:05:38.528Z,23.40
2024-05-09T16:08:07.269Z,23.10
2024-05-09T16:10:35.369Z,22.90
2024-05-09T16:13:03.703Z,22.60
2024-05-09T16:15:31.883Z,22.40
2024-05-09T16:18:01.862Z,22.20
2024-05-09T16:20:37.348Z,21.90
2024-05-09T16:23:08.189Z,21.40
2024-05-09T16:25:35.737Z,21.30
2024-05-09T16:28:06.287Z,21.20
2024-05-09T16:30:36.579Z,21.20
2024-05-09T16:33:06.957Z,21.10
2024-05-09T16:35:35.000Z,21.00
2024-05-09T16:38:03.721Z,20.90
2024-05-09T16:40:37.844Z,20.90
2024-05-09T16:43:08.484Z,20.90
2024-05-09T16:45:36.062Z,21.00
2024-05-09T16:48:07.837Z,21.00
2024-05-09T16:50:35.934Z,21.00
2024-05-09T16:53:04.695Z,21.00
2024-05-09T16:55:32.568Z,20.90
2024-05-09T16:57:59.949Z,20.70
2024-05-09T17:00:37.904Z,20.70
2024-05-09T17:03:13.996Z,20.60
2024-05-09T17:05:42.946Z,20.60
2024-05-09T17:08:10.707Z,20.70
2024-05-09T17:10:37.900Z,20.70
2024-05-09T17:13:07.053Z,20.70
2024-05-09T17:15:35.647Z,20.70
2024-05-09T17:18:04.050Z,20.70
2024-05-09T17:20:36.539Z,20.70
2024-05-09T17:23:12.617Z,20.60
2024-05-09T17:25:41.061Z,20.60
2024-05-09T17:28:08.816Z,20.60
2024-05-09T17:30:38.460Z,20.50
2024-05-09T17:33:09.421Z,20.40
2024-05-09T17:35:40.555Z,20.40
2024-05-09T17:38:08.227Z,20.30
2024-05-09T17:40:39.574Z,20.20
2024-05-09T17:43:09.164Z,20.20
2024-05-09T17:45:38.537Z,20.10
2024-05-09T17:48:07.432Z,20.00
2024-05-09T17:50:36.901Z,19.90
2024-05-09T17:53:08.245Z,19.80
2024-05-09T17:55:36.044Z,19.80
2024-05-09T17:58:04.111Z,19.70
2024-05-09T18:00:38.457Z,19.60
2024-05-09T18:03:11.025Z,19.50
2024-05-09T18:05:38.954Z,19.40
2024-05-09T18:08:09.117Z,19.40
2024-05-09T18:10:39.035Z,19.30
2024-05-09T18:13:08.021Z,19.30
2024-05-09T18:15:35.667Z,19.20
2024-05-09T18:18:03.639Z,19.20
2024-05-09T18:20:40.742Z,19.10
2024-05-09T18:23:16.524Z,19.00
2024-05-09T18:25:45.031Z,19.00
2024-05-09T18:28:12.301Z,18.90
2024-05-09T18:30:41.046Z,18.80
2024-05-09T18:33:10.370Z,18.70
2024-05-09T18:35:38.113Z,18.60
2024-05-09T18:38:05.849Z,18.50
2024-05-09T18:40:38.057Z,18.40
2024-05-09T18:43:08.139Z,18.30
2024-05-09T18:45:37.091Z,18.20
2024-05-09T18:48:06.319Z,18.10
2024-05-09T18:51:11.112Z,18.00
2024-05-09T18:53:46.305Z,17.90
2024-05-09T18:56:15.943Z,17.80
2024-05-09T18:58:43.064Z,17.70
2024-05-09T19:01:10.766Z,17.60
2024-05-09T19:03:38.802Z,17.50
2024-05-09T19:06:06.302Z,17.40
2024-05-09T19:08:33.539Z,17.40
2024-05-09T19:11:01.774Z,17.30
2024-05-09T19:13:31.791Z,17.20
2024-05-09T19:15:59.174Z,17.20
2024-05-09T19:18:26.348Z,17.00
2024-05-09T19:20:53.493Z,17.00
2024-05-09T19:23:20.560Z,16.90
2024-05-09T19:25:47.615Z,16.80
2024-05-09T19:28:14.756Z,16.80
2024-05-09T19:30:44.533Z,16.70
2024-05-09T19:33:13.335Z,16.60
2024-05-09T19:35:41.665Z,16.60
2024-05-09T19:38:08.978Z,16.50
2024-05-09T19:40:36.737Z,16.50
2024-05-09T19:43:05.894Z,16.40
2024-05-09T19:45:34.613Z,16.40
2024-05-09T19:48:07.335Z,16.30
2024-05-09T19:50:41.587Z,16.30
2024-05-09T19:53:12.123Z,16.20
2024-05-09T19:55:39.595Z,16.10
2024-05-09T19:58:07.851Z,16.10
2024-05-09T20:00:38.259Z,16.10
2024-05-09T20:03:10.841Z,16.00
2024-05-09T20:05:38.558Z,16.00
2024-05-09T20:08:07.249Z,15.90
2024-05-09T20:10:35.884Z,15.80
2024-05-09T20:13:05.212Z,15.80
2024-05-09T20:15:35.239Z,15.70
2024-05-09T20:18:02.887Z,15.70
2024-05-09T20:20:39.092Z,15.60
2024-05-09T20:23:09.344Z,15.60
2024-05-09T20:25:36.636Z,15.60
2024-05-09T20:28:04.361Z,15.50
2024-05-09T20:30:33.875Z,15.50
2024-05-09T20:33:03.601Z,15.50
2024-05-09T20:35:34.928Z,15.40
2024-05-09T20:38:03.323Z,15.40
2024-05-09T20:40:35.245Z,15.30
2024-05-09T20:43:05.995Z,15.30
2024-05-09T20:45:33.766Z,15.20
2024-05-09T20:48:01.376Z,15.10
2024-05-09T20:50:36.813Z,15.00
2024-05-09T20:53:12.150Z,14.90
2024-05-09T20:55:40.403Z,14.80
2024-05-09T20:58:07.983Z,14.70
2024-05-09T21:00:40.027Z,14.60
2024-05-09T21:03:11.396Z,14.50
2024-05-09T21:05:39.281Z,14.40
2024-05-09T21:08:09.965Z,14.30
2024-05-09T21:10:37.739Z,14.20
2024-05-09T21:13:06.711Z,14.10
2024-05-09T21:15:34.958Z,14.10
2024-05-09T21:18:02.479Z,14.00
2024-05-09T21:20:32.677Z,13.90
2024-05-09T21:23:00.936Z,13.80
2024-05-09T21:25:31.119Z,13.80
2024-05-09T21:27:58.600Z,13.70
2024-05-09T21:30:32.738Z,13.60
2024-05-09T21:33:08.814Z,13.60
2024-05-09T21:35:36.589Z,13.60
2024-05-09T21:38:04.553Z,13.60
2024-05-09T21:40:36.153Z,13.60
2024-05-09T21:43:04.803Z,13.60
2024-05-09T21:45:32.584Z,13.60
2024-05-09T21:48:00.033Z,13.50
2024-05-09T21:50:36.357Z,13.50
2024-05-09T21:53:07.585Z,13.40
2024-05-09T21:55:37.268Z,13.30
2024-05-09T21:58:04.717Z,13.30
2024-05-09T22:00:36.669Z,13.20
2024-05-09T22:03:06.237Z,13.20
2024-05-09T22:05:34.351Z,13.20
2024-05-09T22:08:01.587Z,13.20
2024-05-09T22:10:33.997Z,13.20
2024-05-09T22:13:06.376Z,13.00
2024-05-09T22:15:35.695Z,13.00
2024-05-09T22:18:04.014Z,12.90
2024-05-09T22:20:37.085Z,12.90
2024-05-09T22:23:08.728Z,12.90
2024-05-09T22:25:36.351Z,12.90
2024-05-09T22:28:07.508Z,12.90
2024-05-09T22:30:38.402Z,12.90
2024-05-09T22:33:08.287Z,12.80
2024-05-09T22:35:36.789Z,12.70
2024-05-09T22:38:04.325Z,12.60
2024-05-09T22:40:42.176Z,12.60
2024-05-09T22:43:20.809Z,12.60
2024-05-09T22:45:49.708Z,12.50
2024-05-09T22:48:17.466Z,12.40
2024-05-09T22:50:44.965Z,12.40
2024-05-09T22:53:12.021Z,12.40
2024-05-09T22:55:39.053Z,12.30
2024-05-09T22:58:06.166Z,12.40
2024-05-09T23:00:36.007Z,12.40
2024-05-09T23:03:03.642Z,12.40
2024-05-09T23:05:32.077Z,12.30
2024-05-09T23:08:00.137Z,12.30
2024-05-09T23:10:32.538Z,12.20
2024-05-09T23:13:04.019Z,12.10
2024-05-09T23:15:31.381Z,12.10
2024-05-09T23:18:01.302Z,12.00
2024-05-09T23:20:36.377Z,12.00
2024-05-09T23:23:06.651Z,12.00
2024-05-09T23:25:34.023Z,12.00
2024-05-09T23:28:01.406Z,12.00
2024-05-09T23:30:36.259Z,11.90
2024-05-09T23:33:10.459Z,12.00
2024-05-09T23:35:37.976Z,12.00
2024-05-09T23:38:05.337Z,12.00
2024-05-09T23:43:02.972Z,12.00
2024-05-09T23:45:30.082Z,11.90
2024-05-09T23:47:57.295Z,11.80
2024-05-09T23:50:34.119Z,11.80
2024-05-09T23:53:05.020Z,11.80
2024-05-09T23:55:32.707Z,11.80
2024-05-09T23:58:00.228Z,11.80
